sensor_id;sensor_type;location;lat;lon;timestamp;temperature;humidity
3198;DHT22;1611;49.394;11.136;2023-04-06T00:00:01;1.50;46.70
3198;DHT22;1611;49.394;11.136;2023-04-06T00:02:29;1.40;46.30
3198;DHT22;1611;49.394;11.136;2023-04-06T00:04:56;1.40;46.50
3198;DHT22;1611;49.394;11.136;2023-04-06T00:07:23;1.30;46.20
3198;DHT22;1611;49.394;11.136;2023-04-06T00:09:49;1.30;47.20
3198;DHT22;1611;49.394;11.136;2023-04-06T00:12:17;1.30;47.70
3198;DHT22;1611;49.394;11.136;2023-04-06T00:14:44;1.30;48.80
3198;DHT22;1611;49.394;11.136;2023-04-06T00:17:11;1.30;48.60
3198;DHT22;1611;49.394;11.136;2023-04-06T00:19:38;1.30;48.00
3198;DHT22;1611;49.394;11.136;2023-04-06T00:22:04;1.30;47.80
3198;DHT22;1611;49.394;11.136;2023-04-06T00:24:31;1.20;47.70
3198;DHT22;1611;49.394;11.136;2023-04-06T00:26:58;1.20;47.60
3198;DHT22;1611;49.394;11.136;2023-04-06T00:29:26;1.20;48.40
3198;DHT22;1611;49.394;11.136;2023-04-06T00:31:53;1.20;48.90
3198;DHT22;1611;49.394;11.136;2023-04-06T00:34:20;1.10;49.10
3198;DHT22;1611;49.394;11.136;2023-04-06T00:36:46;1.20;49.10
3198;DHT22;1611;49.394;11.136;2023-04-06T00:39:13;1.20;48.50
3198;DHT22;1611;49.394;11.136;2023-04-06T00:41:45;1.10;48.80
3198;DHT22;1611;49.394;11.136;2023-04-06T00:44:12;1.10;48.20
3198;DHT22;1611;49.394;11.136;2023-04-06T00:46:40;1.10;48.70
3198;DHT22;1611;49.394;11.136;2023-04-06T00:49:07;1.10;48.80
3198;DHT22;1611;49.394;11.136;2023-04-06T00:51:34;1.10;49.10
3198;DHT22;1611;49.394;11.136;2023-04-06T00:54:01;1.10;49.50
3198;DHT22;1611;49.394;11.136;2023-04-06T00:56:27;1.10;49.50
3198;DHT22;1611;49.394;11.136;2023-04-06T00:58:54;1.10;49.10
3198;DHT22;1611;49.394;11.136;2023-04-06T01:01:23;1.00;49.00
3198;DHT22;1611;49.394;11.136;2023-04-06T01:03:51;1.10;49.10
3198;DHT22;1611;49.394;11.136;2023-04-06T01:06:18;1.10;48.80
3198;DHT22;1611;49.394;11.136;2023-04-06T01:08:45;1.00;48.70
3198;DHT22;1611;49.394;11.136;2023-04-06T01:11:12;1.00;48.70
3198;DHT22;1611;49.394;11.136;2023-04-06T01:13:38;1.10;48.80
3198;DHT22;1611;49.394;11.136;2023-04-06T01:16:05;0.90;48.50
3198;DHT22;1611;49.394;11.136;2023-04-06T01:18:32;0.90;48.60
3198;DHT22;1611;49.394;11.136;2023-04-06T01:21:00;0.90;50.20
3198;DHT22;1611;49.394;11.136;2023-04-06T01:23:28;0.80;49.50
3198;DHT22;1611;49.394;11.136;2023-04-06T01:25:55;0.80;49.40
3198;DHT22;1611;49.394;11.136;2023-04-06T01:28:22;0.90;49.50
3198;DHT22;1611;49.394;11.136;2023-04-06T01:30:49;0.90;49.60
3198;DHT22;1611;49.394;11.136;2023-04-06T01:33:16;0.80;49.10
3198;DHT22;1611;49.394;11.136;2023-04-06T01:35:43;0.80;49.60
3198;DHT22;1611;49.394;11.136;2023-04-06T01:38:09;0.80;49.20
3198;DHT22;1611;49.394;11.136;2023-04-06T01:40:37;0.80;49.10
3198;DHT22;1611;49.394;11.136;2023-04-06T01:43:04;0.80;49.50
3198;DHT22;1611;49.394;11.136;2023-04-06T01:45:32;0.80;49.80
3198;DHT22;1611;49.394;11.136;2023-04-06T01:47:58;0.70;49.70
3198;DHT22;1611;49.394;11.136;2023-04-06T01:50:25;0.70;50.00
3198;DHT22;1611;49.394;11.136;2023-04-06T01:52:52;0.70;50.40
3198;DHT22;1611;49.394;11.136;2023-04-06T01:55:19;0.60;50.50
3198;DHT22;1611;49.394;11.136;2023-04-06T01:57:47;0.60;50.30
3198;DHT22;1611;49.394;11.136;2023-04-06T02:00:15;0.50;50.90
3198;DHT22;1611;49.394;11.136;2023-04-06T02:02:41;0.50;51.20
3198;DHT22;1611;49.394;11.136;2023-04-06T02:05:08;0.50;51.60
3198;DHT22;1611;49.394;11.136;2023-04-06T02:07:35;0.50;51.80
3198;DHT22;1611;49.394;11.136;2023-04-06T02:10:02;0.50;52.40
3198;DHT22;1611;49.394;11.136;2023-04-06T02:12:29;0.40;52.20
3198;DHT22;1611;49.394;11.136;2023-04-06T02:14:57;0.40;52.00
3198;DHT22;1611;49.394;11.136;2023-04-06T02:17:24;0.50;51.60
3198;DHT22;1611;49.394;11.136;2023-04-06T02:19:51;0.50;50.70
3198;DHT22;1611;49.394;11.136;2023-04-06T02:22:18;0.50;50.20
3198;DHT22;1611;49.394;11.136;2023-04-06T02:24:44;0.60;50.20
3198;DHT22;1611;49.394;11.136;2023-04-06T02:27:12;0.50;50.50
3198;DHT22;1611;49.394;11.136;2023-04-06T02:29:38;0.50;51.10
3198;DHT22;1611;49.394;11.136;2023-04-06T02:32:07;0.50;50.40
3198;DHT22;1611;49.394;11.136;2023-04-06T02:34:33;0.60;50.10
3198;DHT22;1611;49.394;11.136;2023-04-06T02:37:00;0.50;50.20
3198;DHT22;1611;49.394;11.136;2023-04-06T02:39:27;0.50;50.30
3198;DHT22;1611;49.394;11.136;2023-04-06T02:41:54;0.50;50.90
3198;DHT22;1611;49.394;11.136;2023-04-06T02:44:20;0.50;51.00
3198;DHT22;1611;49.394;11.136;2023-04-06T02:46:47;0.40;50.80
3198;DHT22;1611;49.394;11.136;2023-04-06T02:49:15;0.50;51.30
3198;DHT22;1611;49.394;11.136;2023-04-06T02:51:42;0.40;51.00
3198;DHT22;1611;49.394;11.136;2023-04-06T02:54:08;0.50;50.90
3198;DHT22;1611;49.394;11.136;2023-04-06T02:56:35;0.40;50.80
3198;DHT22;1611;49.394;11.136;2023-04-06T02:59:02;0.40;52.00
3198;DHT22;1611;49.394;11.136;2023-04-06T03:01:29;0.50;51.60
3198;DHT22;1611;49.394;11.136;2023-04-06T03:03:56;0.40;51.40
3198;DHT22;1611;49.394;11.136;2023-04-06T03:06:24;0.40;51.50
3198;DHT22;1611;49.394;11.136;2023-04-06T03:08:51;0.50;52.00
3198;DHT22;1611;49.394;11.136;2023-04-06T03:11:18;0.30;51.80
3198;DHT22;1611;49.394;11.136;2023-04-06T03:13:46;0.40;51.70
3198;DHT22;1611;49.394;11.136;2023-04-06T03:16:12;0.30;51.80
3198;DHT22;1611;49.394;11.136;2023-04-06T03:18:39;0.30;52.20
3198;DHT22;1611;49.394;11.136;2023-04-06T03:21:06;0.20;51.80
3198;DHT22;1611;49.394;11.136;2023-04-06T03:23:34;0.20;52.00
3198;DHT22;1611;49.394;11.136;2023-04-06T03:26:01;0.20;52.60
3198;DHT22;1611;49.394;11.136;2023-04-06T03:28:28;0.20;52.40
3198;DHT22;1611;49.394;11.136;2023-04-06T03:30:55;0.30;52.70
3198;DHT22;1611;49.394;11.136;2023-04-06T03:33:21;0.30;52.50
3198;DHT22;1611;49.394;11.136;2023-04-06T03:35:48;0.30;51.70
3198;DHT22;1611;49.394;11.136;2023-04-06T03:38:15;0.20;51.40
3198;DHT22;1611;49.394;11.136;2023-04-06T03:40:43;0.20;51.50
3198;DHT22;1611;49.394;11.136;2023-04-06T03:43:10;0.20;51.80
3198;DHT22;1611;49.394;11.136;2023-04-06T03:45:37;0.10;51.60
3198;DHT22;1611;49.394;11.136;2023-04-06T03:48:04;0.10;51.40
3198;DHT22;1611;49.394;11.136;2023-04-06T03:50:31;0.10;51.70
3198;DHT22;1611;49.394;11.136;2023-04-06T03:52:58;0.10;52.20
3198;DHT22;1611;49.394;11.136;2023-04-06T03:55:24;0.10;52.60
3198;DHT22;1611;49.394;11.136;2023-04-06T03:57:53;0.00;53.20
3198;DHT22;1611;49.394;11.136;2023-04-06T04:00:20;0.00;52.70
3198;DHT22;1611;49.394;11.136;2023-04-06T04:02:46;0.00;52.40
3198;DHT22;1611;49.394;11.136;2023-04-06T04:05:13;0.00;52.80
3198;DHT22;1611;49.394;11.136;2023-04-06T04:07:40;-0.20;52.90
3198;DHT22;1611;49.394;11.136;2023-04-06T04:10:07;-0.10;53.40
3198;DHT22;1611;49.394;11.136;2023-04-06T04:12:34;-0.10;53.10
3198;DHT22;1611;49.394;11.136;2023-04-06T04:15:03;-0.10;53.70
3198;DHT22;1611;49.394;11.136;2023-04-06T04:17:30;-0.10;53.30
3198;DHT22;1611;49.394;11.136;2023-04-06T04:19:57;-0.10;53.10
3198;DHT22;1611;49.394;11.136;2023-04-06T04:22:23;-0.10;53.40
3198;DHT22;1611;49.394;11.136;2023-04-06T04:24:50;-0.10;53.30
3198;DHT22;1611;49.394;11.136;2023-04-06T04:27:17;-0.10;53.20
3198;DHT22;1611;49.394;11.136;2023-04-06T04:29:44;-0.20;53.40
3198;DHT22;1611;49.394;11.136;2023-04-06T04:32:12;-0.20;53.50
3198;DHT22;1611;49.394;11.136;2023-04-06T04:34:38;-0.20;54.00
3198;DHT22;1611;49.394;11.136;2023-04-06T04:37:06;-0.20;54.60
3198;DHT22;1611;49.394;11.136;2023-04-06T04:39:33;-0.20;55.20
3198;DHT22;1611;49.394;11.136;2023-04-06T04:41:59;-0.20;55.00
3198;DHT22;1611;49.394;11.136;2023-04-06T04:44:26;-0.10;55.20
3198;DHT22;1611;49.394;11.136;2023-04-06T04:46:53;-0.10;55.30
3198;DHT22;1611;49.394;11.136;2023-04-06T04:49:21;-0.10;55.30
3198;DHT22;1611;49.394;11.136;2023-04-06T04:51:48;0.00;55.10
3198;DHT22;1611;49.394;11.136;2023-04-06T04:54:17;-0.10;55.10
3198;DHT22;1611;49.394;11.136;2023-04-06T04:56:44;0.00;54.40
3198;DHT22;1611;49.394;11.136;2023-04-06T04:59:11;0.00;54.50
3198;DHT22;1611;49.394;11.136;2023-04-06T05:01:38;0.00;54.60
3198;DHT22;1611;49.394;11.136;2023-04-06T05:04:05;0.10;53.90
3198;DHT22;1611;49.394;11.136;2023-04-06T05:06:33;0.10;53.80
3198;DHT22;1611;49.394;11.136;2023-04-06T05:08:59;0.10;53.90
3198;DHT22;1611;49.394;11.136;2023-04-06T05:11:26;0.20;53.70
3198;DHT22;1611;49.394;11.136;2023-04-06T05:13:53;0.30;53.80
3198;DHT22;1611;49.394;11.136;2023-04-06T05:16:20;0.40;52.90
3198;DHT22;1611;49.394;11.136;2023-04-06T05:18:47;0.40;53.00
3198;DHT22;1611;49.394;11.136;2023-04-06T05:21:14;0.50;50.60
3198;DHT22;1611;49.394;11.136;2023-04-06T05:23:42;0.50;52.30
3198;DHT22;1611;49.394;11.136;2023-04-06T05:26:09;0.50;51.90
3198;DHT22;1611;49.394;11.136;2023-04-06T05:28:36;0.60;52.20
3198;DHT22;1611;49.394;11.136;2023-04-06T05:31:03;0.60;52.00
3198;DHT22;1611;49.394;11.136;2023-04-06T05:33:30;0.60;52.20
3198;DHT22;1611;49.394;11.136;2023-04-06T05:35:56;0.60;52.40
3198;DHT22;1611;49.394;11.136;2023-04-06T05:38:23;0.70;52.40
3198;DHT22;1611;49.394;11.136;2023-04-06T05:40:51;0.70;51.80
3198;DHT22;1611;49.394;11.136;2023-04-06T05:43:18;0.80;51.10
3198;DHT22;1611;49.394;11.136;2023-04-06T05:45:45;0.90;51.00
3198;DHT22;1611;49.394;11.136;2023-04-06T05:48:11;1.00;50.50
3198;DHT22;1611;49.394;11.136;2023-04-06T05:50:38;1.10;50.20
3198;DHT22;1611;49.394;11.136;2023-04-06T05:53:05;1.20;49.60
3198;DHT22;1611;49.394;11.136;2023-04-06T05:55:32;1.20;49.90
3198;DHT22;1611;49.394;11.136;2023-04-06T05:58:00;1.30;49.90
3198;DHT22;1611;49.394;11.136;2023-04-06T06:00:26;1.40;49.10
3198;DHT22;1611;49.394;11.136;2023-04-06T06:02:53;1.50;48.20
3198;DHT22;1611;49.394;11.136;2023-04-06T06:05:20;1.50;47.50
3198;DHT22;1611;49.394;11.136;2023-04-06T06:07:47;1.60;47.50
3198;DHT22;1611;49.394;11.136;2023-04-06T06:10:13;1.70;46.90
3198;DHT22;1611;49.394;11.136;2023-04-06T06:12:40;1.80;46.90
3198;DHT22;1611;49.394;11.136;2023-04-06T06:15:09;1.90;46.50
3198;DHT22;1611;49.394;11.136;2023-04-06T06:17:36;2.00;46.70
3198;DHT22;1611;49.394;11.136;2023-04-06T06:20:05;2.10;47.00
3198;DHT22;1611;49.394;11.136;2023-04-06T06:22:32;2.20;45.00
3198;DHT22;1611;49.394;11.136;2023-04-06T06:24:58;2.30;43.40
3198;DHT22;1611;49.394;11.136;2023-04-06T06:27:25;2.40;42.00
3198;DHT22;1611;49.394;11.136;2023-04-06T06:29:52;2.50;41.10
3198;DHT22;1611;49.394;11.136;2023-04-06T06:32:20;2.70;39.70
3198;DHT22;1611;49.394;11.136;2023-04-06T06:34:47;2.80;40.00
3198;DHT22;1611;49.394;11.136;2023-04-06T06:37:14;3.00;40.00
3198;DHT22;1611;49.394;11.136;2023-04-06T06:39:40;3.10;38.00
3198;DHT22;1611;49.394;11.136;2023-04-06T06:42:07;3.20;37.20
3198;DHT22;1611;49.394;11.136;2023-04-06T06:44:34;3.30;37.60
3198;DHT22;1611;49.394;11.136;2023-04-06T06:47:00;3.40;36.10
3198;DHT22;1611;49.394;11.136;2023-04-06T06:49:28;3.60;36.60
3198;DHT22;1611;49.394;11.136;2023-04-06T06:51:55;3.70;36.80
3198;DHT22;1611;49.394;11.136;2023-04-06T06:54:22;3.70;35.40
3198;DHT22;1611;49.394;11.136;2023-04-06T06:56:49;3.90;35.00
3198;DHT22;1611;49.394;11.136;2023-04-06T06:59:15;4.10;35.30
3198;DHT22;1611;49.394;11.136;2023-04-06T07:01:42;4.10;33.50
3198;DHT22;1611;49.394;11.136;2023-04-06T07:04:09;4.30;33.30
3198;DHT22;1611;49.394;11.136;2023-04-06T07:06:37;4.30;32.70
3198;DHT22;1611;49.394;11.136;2023-04-06T07:09:04;4.50;32.70
3198;DHT22;1611;49.394;11.136;2023-04-06T07:11:31;4.70;32.70
3198;DHT22;1611;49.394;11.136;2023-04-06T07:13:57;4.90;33.00
3198;DHT22;1611;49.394;11.136;2023-04-06T07:16:24;5.00;32.20
3198;DHT22;1611;49.394;11.136;2023-04-06T07:18:51;5.20;30.80
3198;DHT22;1611;49.394;11.136;2023-04-06T07:21:18;5.20;30.60
3198;DHT22;1611;49.394;11.136;2023-04-06T07:23:46;5.40;30.20
3198;DHT22;1611;49.394;11.136;2023-04-06T07:26:14;5.50;29.70
3198;DHT22;1611;49.394;11.136;2023-04-06T07:28:40;5.60;29.50
3198;DHT22;1611;49.394;11.136;2023-04-06T07:31:07;5.80;28.80
3198;DHT22;1611;49.394;11.136;2023-04-06T07:33:34;5.80;28.80
3198;DHT22;1611;49.394;11.136;2023-04-06T07:36:01;5.90;29.10
3198;DHT22;1611;49.394;11.136;2023-04-06T07:38:27;6.10;29.20
3198;DHT22;1611;49.394;11.136;2023-04-06T07:40:55;6.20;28.00
3198;DHT22;1611;49.394;11.136;2023-04-06T07:43:22;6.30;28.20
3198;DHT22;1611;49.394;11.136;2023-04-06T07:45:49;6.50;27.80
3198;DHT22;1611;49.394;11.136;2023-04-06T07:48:16;6.70;27.20
3198;DHT22;1611;49.394;11.136;2023-04-06T07:50:42;6.80;25.10
3198;DHT22;1611;49.394;11.136;2023-04-06T07:53:09;6.80;24.60
3198;DHT22;1611;49.394;11.136;2023-04-06T07:55:36;7.00;25.50
3198;DHT22;1611;49.394;11.136;2023-04-06T07:58:04;7.10;24.90
3198;DHT22;1611;49.394;11.136;2023-04-06T08:00:31;7.20;24.50
3198;DHT22;1611;49.394;11.136;2023-04-06T08:02:58;7.30;24.90
3198;DHT22;1611;49.394;11.136;2023-04-06T08:05:24;7.40;24.20
3198;DHT22;1611;49.394;11.136;2023-04-06T08:07:51;7.50;22.40
3198;DHT22;1611;49.394;11.136;2023-04-06T08:10:18;7.60;23.60
3198;DHT22;1611;49.394;11.136;2023-04-06T08:12:45;7.50;22.50
3198;DHT22;1611;49.394;11.136;2023-04-06T08:15:13;7.70;24.10
3198;DHT22;1611;49.394;11.136;2023-04-06T08:17:40;7.80;22.70
3198;DHT22;1611;49.394;11.136;2023-04-06T08:20:07;7.90;21.40
3198;DHT22;1611;49.394;11.136;2023-04-06T08:22:34;8.00;22.70
3198;DHT22;1611;49.394;11.136;2023-04-06T08:25:01;8.10;21.00
3198;DHT22;1611;49.394;11.136;2023-04-06T08:27:27;8.20;21.30
3198;DHT22;1611;49.394;11.136;2023-04-06T08:29:54;8.30;22.60
3198;DHT22;1611;49.394;11.136;2023-04-06T08:32:22;8.50;22.20
3198;DHT22;1611;49.394;11.136;2023-04-06T08:34:49;8.70;22.50
3198;DHT22;1611;49.394;11.136;2023-04-06T08:37:19;8.90;20.70
3198;DHT22;1611;49.394;11.136;2023-04-06T08:39:46;9.10;21.00
3198;DHT22;1611;49.394;11.136;2023-04-06T08:42:19;9.10;20.00
3198;DHT22;1611;49.394;11.136;2023-04-06T08:44:46;9.30;20.50
3198;DHT22;1611;49.394;11.136;2023-04-06T08:47:13;9.20;18.90
3198;DHT22;1611;49.394;11.136;2023-04-06T08:49:42;9.10;19.30
3198;DHT22;1611;49.394;11.136;2023-04-06T08:52:10;9.20;19.30
3198;DHT22;1611;49.394;11.136;2023-04-06T08:54:37;9.30;19.70
3198;DHT22;1611;49.394;11.136;2023-04-06T08:57:05;9.40;18.90
3198;DHT22;1611;49.394;11.136;2023-04-06T08:59:32;9.60;18.60
3198;DHT22;1611;49.394;11.136;2023-04-06T09:01:59;9.70;17.80
3198;DHT22;1611;49.394;11.136;2023-04-06T09:04:27;9.70;17.90
3198;DHT22;1611;49.394;11.136;2023-04-06T09:06:55;9.70;17.90
3198;DHT22;1611;49.394;11.136;2023-04-06T09:09:22;9.90;18.60
3198;DHT22;1611;49.394;11.136;2023-04-06T09:11:51;9.90;19.20
3198;DHT22;1611;49.394;11.136;2023-04-06T09:14:33;9.90;18.20
3198;DHT22;1611;49.394;11.136;2023-04-06T09:17:00;10.00;18.10
3198;DHT22;1611;49.394;11.136;2023-04-06T09:19:27;10.10;18.00
3198;DHT22;1611;49.394;11.136;2023-04-06T09:22:03;10.10;16.80
3198;DHT22;1611;49.394;11.136;2023-04-06T09:24:40;10.10;16.80
3198;DHT22;1611;49.394;11.136;2023-04-06T09:27:07;10.20;18.90
3198;DHT22;1611;49.394;11.136;2023-04-06T09:29:33;10.40;17.50
3198;DHT22;1611;49.394;11.136;2023-04-06T09:32:03;10.60;16.80
3198;DHT22;1611;49.394;11.136;2023-04-06T09:34:30;10.60;17.70
3198;DHT22;1611;49.394;11.136;2023-04-06T09:36:57;10.60;16.70
3198;DHT22;1611;49.394;11.136;2023-04-06T09:39:25;10.60;16.40
3198;DHT22;1611;49.394;11.136;2023-04-06T09:41:53;10.60;16.20
3198;DHT22;1611;49.394;11.136;2023-04-06T09:44:21;10.90;17.10
3198;DHT22;1611;49.394;11.136;2023-04-06T09:46:50;11.10;16.20
3198;DHT22;1611;49.394;11.136;2023-04-06T09:49:18;11.40;16.30
3198;DHT22;1611;49.394;11.136;2023-04-06T09:51:48;11.40;17.00
3198;DHT22;1611;49.394;11.136;2023-04-06T09:54:22;11.60;16.00
3198;DHT22;1611;49.394;11.136;2023-04-06T09:56:58;11.60;15.50
3198;DHT22;1611;49.394;11.136;2023-04-06T09:59:32;11.70;15.70
3198;DHT22;1611;49.394;11.136;2023-04-06T10:02:04;11.70;15.50
3198;DHT22;1611;49.394;11.136;2023-04-06T10:04:37;11.70;15.70
3198;DHT22;1611;49.394;11.136;2023-04-06T10:07:08;12.00;15.20
3198;DHT22;1611;49.394;11.136;2023-04-06T10:09:37;12.20;14.30
3198;DHT22;1611;49.394;11.136;2023-04-06T10:12:06;12.30;13.20
3198;DHT22;1611;49.394;11.136;2023-04-06T10:14:34;12.30;14.70
3198;DHT22;1611;49.394;11.136;2023-04-06T10:17:02;12.40;15.30
3198;DHT22;1611;49.394;11.136;2023-04-06T10:19:35;12.60;13.60
3198;DHT22;1611;49.394;11.136;2023-04-06T10:22:06;12.60;13.20
3198;DHT22;1611;49.394;11.136;2023-04-06T10:24:35;12.90;13.80
3198;DHT22;1611;49.394;11.136;2023-04-06T10:27:03;13.00;13.50
3198;DHT22;1611;49.394;11.136;2023-04-06T10:29:43;13.10;12.40
3198;DHT22;1611;49.394;11.136;2023-04-06T10:32:10;13.10;11.90
3198;DHT22;1611;49.394;11.136;2023-04-06T10:34:37;13.20;12.40
3198;DHT22;1611;49.394;11.136;2023-04-06T10:37:12;13.30;11.80
3198;DHT22;1611;49.394;11.136;2023-04-06T10:39:46;13.60;11.90
3198;DHT22;1611;49.394;11.136;2023-04-06T10:42:13;14.10;12.40
3198;DHT22;1611;49.394;11.136;2023-04-06T10:44:43;14.80;9.80
3198;DHT22;1611;49.394;11.136;2023-04-06T10:47:16;15.50;9.80
3198;DHT22;1611;49.394;11.136;2023-04-06T10:49:44;16.70;8.20
3198;DHT22;1611;49.394;11.136;2023-04-06T10:52:11;17.50;9.60
3198;DHT22;1611;49.394;11.136;2023-04-06T10:54:42;18.00;7.20
3198;DHT22;1611;49.394;11.136;2023-04-06T10:57:09;18.80;6.50
3198;DHT22;1611;49.394;11.136;2023-04-06T10:59:36;18.60;6.90
3198;DHT22;1611;49.394;11.136;2023-04-06T11:02:05;18.40;5.90
3198;DHT22;1611;49.394;11.136;2023-04-06T11:04:31;19.30;5.50
3198;DHT22;1611;49.394;11.136;2023-04-06T11:06:58;20.20;4.40
3198;DHT22;1611;49.394;11.136;2023-04-06T11:09:26;20.20;4.20
3198;DHT22;1611;49.394;11.136;2023-04-06T11:11:53;21.40;4.20
3198;DHT22;1611;49.394;11.136;2023-04-06T11:14:20;22.30;1.90
3198;DHT22;1611;49.394;11.136;2023-04-06T11:16:48;22.90;1.80
3198;DHT22;1611;49.394;11.136;2023-04-06T11:19:17;23.00;1.00
3198;DHT22;1611;49.394;11.136;2023-04-06T11:21:45;23.40;1.00
3198;DHT22;1611;49.394;11.136;2023-04-06T11:24:14;23.20;1.00
3198;DHT22;1611;49.394;11.136;2023-04-06T11:26:43;23.50;1.70
3198;DHT22;1611;49.394;11.136;2023-04-06T11:29:11;24.00;1.00
3198;DHT22;1611;49.394;11.136;2023-04-06T11:31:39;23.90;1.00
3198;DHT22;1611;49.394;11.136;2023-04-06T11:34:15;24.40;1.00
3198;DHT22;1611;49.394;11.136;2023-04-06T11:36:44;24.80;1.00
3198;DHT22;1611;49.394;11.136;2023-04-06T11:39:12;25.30;1.00
3198;DHT22;1611;49.394;11.136;2023-04-06T11:41:39;25.90;1.00
3198;DHT22;1611;49.394;11.136;2023-04-06T11:44:06;26.10;1.00
3198;DHT22;1611;49.394;11.136;2023-04-06T11:46:33;26.50;1.00
3198;DHT22;1611;49.394;11.136;2023-04-06T11:49:00;26.50;1.00
3198;DHT22;1611;49.394;11.136;2023-04-06T11:51:27;26.70;1.00
3198;DHT22;1611;49.394;11.136;2023-04-06T11:53:55;26.50;1.00
3198;DHT22;1611;49.394;11.136;2023-04-06T11:56:24;27.00;1.00
3198;DHT22;1611;49.394;11.136;2023-04-06T11:58:51;27.00;1.00
3198;DHT22;1611;49.394;11.136;2023-04-06T12:01:18;27.70;1.00
3198;DHT22;1611;49.394;11.136;2023-04-06T12:03:45;28.00;1.00
3198;DHT22;1611;49.394;11.136;2023-04-06T12:06:12;28.30;1.00
3198;DHT22;1611;49.394;11.136;2023-04-06T12:08:38;28.30;1.00
3198;DHT22;1611;49.394;11.136;2023-04-06T12:11:06;27.60;1.00
3198;DHT22;1611;49.394;11.136;2023-04-06T12:13:33;27.10;1.00
3198;DHT22;1611;49.394;11.136;2023-04-06T12:16:00;26.90;1.00
3198;DHT22;1611;49.394;11.136;2023-04-06T12:18:26;27.00;1.00
3198;DHT22;1611;49.394;11.136;2023-04-06T12:20:53;27.40;1.00
3198;DHT22;1611;49.394;11.136;2023-04-06T12:23:20;28.00;1.00
3198;DHT22;1611;49.394;11.136;2023-04-06T12:25:47;28.20;1.00
3198;DHT22;1611;49.394;11.136;2023-04-06T12:28:15;26.80;1.00
3198;DHT22;1611;49.394;11.136;2023-04-06T12:30:42;26.00;1.00
3198;DHT22;1611;49.394;11.136;2023-04-06T12:33:10;26.10;1.00
3198;DHT22;1611;49.394;11.136;2023-04-06T12:35:37;24.70;1.00
3198;DHT22;1611;49.394;11.136;2023-04-06T12:38:04;23.90;1.00
3198;DHT22;1611;49.394;11.136;2023-04-06T12:40:30;24.10;1.00
3198;DHT22;1611;49.394;11.136;2023-04-06T12:43:02;25.00;1.00
3198;DHT22;1611;49.394;11.136;2023-04-06T12:45:32;25.20;1.00
3198;DHT22;1611;49.394;11.136;2023-04-06T12:47:59;24.00;1.00
3198;DHT22;1611;49.394;11.136;2023-04-06T12:50:26;24.60;1.00
3198;DHT22;1611;49.394;11.136;2023-04-06T12:52:53;24.90;1.00
3198;DHT22;1611;49.394;11.136;2023-04-06T12:55:20;24.60;1.00
3198;DHT22;1611;49.394;11.136;2023-04-06T12:57:47;24.20;1.00
3198;DHT22;1611;49.394;11.136;2023-04-06T13:00:14;24.20;1.00
3198;DHT22;1611;49.394;11.136;2023-04-06T13:02:42;24.20;1.00
3198;DHT22;1611;49.394;11.136;2023-04-06T13:05:12;23.90;1.00
3198;DHT22;1611;49.394;11.136;2023-04-06T13:07:40;23.90;1.00
3198;DHT22;1611;49.394;11.136;2023-04-06T13:10:07;24.20;1.00
3198;DHT22;1611;49.394;11.136;2023-04-06T13:12:34;25.20;1.00
3198;DHT22;1611;49.394;11.136;2023-04-06T13:15:01;26.40;1.00
3198;DHT22;1611;49.394;11.136;2023-04-06T13:17:29;27.40;1.00
3198;DHT22;1611;49.394;11.136;2023-04-06T13:19:58;28.00;1.00
3198;DHT22;1611;49.394;11.136;2023-04-06T13:22:25;27.20;1.00
3198;DHT22;1611;49.394;11.136;2023-04-06T13:24:51;26.70;1.00
3198;DHT22;1611;49.394;11.136;2023-04-06T13:27:18;26.30;1.00
3198;DHT22;1611;49.394;11.136;2023-04-06T13:29:45;26.70;1.00
3198;DHT22;1611;49.394;11.136;2023-04-06T13:32:12;27.60;1.00
3198;DHT22;1611;49.394;11.136;2023-04-06T13:34:39;28.40;1.00
3198;DHT22;1611;49.394;11.136;2023-04-06T13:37:11;28.80;1.00
3198;DHT22;1611;49.394;11.136;2023-04-06T13:39:38;28.90;1.00
3198;DHT22;1611;49.394;11.136;2023-04-06T13:42:05;28.70;1.00
3198;DHT22;1611;49.394;11.136;2023-04-06T13:44:32;28.10;1.00
3198;DHT22;1611;49.394;11.136;2023-04-06T13:46:59;27.90;1.00
3198;DHT22;1611;49.394;11.136;2023-04-06T13:49:25;27.50;1.00
3198;DHT22;1611;49.394;11.136;2023-04-06T13:51:53;26.80;1.00
3198;DHT22;1611;49.394;11.136;2023-04-06T13:54:21;25.60;1.00
3198;DHT22;1611;49.394;11.136;2023-04-06T13:56:48;24.20;1.00
3198;DHT22;1611;49.394;11.136;2023-04-06T13:59:14;23.60;1.00
3198;DHT22;1611;49.394;11.136;2023-04-06T14:01:41;24.00;1.00
3198;DHT22;1611;49.394;11.136;2023-04-06T14:04:08;23.50;1.00
3198;DHT22;1611;49.394;11.136;2023-04-06T14:06:35;23.40;1.00
3198;DHT22;1611;49.394;11.136;2023-04-06T14:09:02;23.60;1.00
3198;DHT22;1611;49.394;11.136;2023-04-06T14:11:31;23.40;1.00
3198;DHT22;1611;49.394;11.136;2023-04-06T14:13:58;23.20;1.00
3198;DHT22;1611;49.394;11.136;2023-04-06T14:16:25;22.60;1.00
3198;DHT22;1611;49.394;11.136;2023-04-06T14:18:52;22.20;1.50
3198;DHT22;1611;49.394;11.136;2023-04-06T14:21:19;21.80;1.00
3198;DHT22;1611;49.394;11.136;2023-04-06T14:23:45;21.90;1.70
3198;DHT22;1611;49.394;11.136;2023-04-06T14:26:12;22.10;1.00
3198;DHT22;1611;49.394;11.136;2023-04-06T14:28:41;22.30;1.60
3198;DHT22;1611;49.394;11.136;2023-04-06T14:31:12;22.60;1.00
3198;DHT22;1611;49.394;11.136;2023-04-06T14:33:40;22.20;1.00
3198;DHT22;1611;49.394;11.136;2023-04-06T14:36:07;22.20;1.00
3198;DHT22;1611;49.394;11.136;2023-04-06T14:38:34;21.70;1.30
3198;DHT22;1611;49.394;11.136;2023-04-06T14:41:01;20.80;2.10
3198;DHT22;1611;49.394;11.136;2023-04-06T14:43:28;20.20;2.70
3198;DHT22;1611;49.394;11.136;2023-04-06T14:45:59;20.50;2.90
3198;DHT22;1611;49.394;11.136;2023-04-06T14:48:26;20.20;3.10
3198;DHT22;1611;49.394;11.136;2023-04-06T14:50:54;19.50;4.00
3198;DHT22;1611;49.394;11.136;2023-04-06T14:53:21;18.70;4.10
3198;DHT22;1611;49.394;11.136;2023-04-06T14:55:48;18.40;5.10
3198;DHT22;1611;49.394;11.136;2023-04-06T14:58:17;18.60;4.80
3198;DHT22;1611;49.394;11.136;2023-04-06T15:00:43;19.20;3.80
3198;DHT22;1611;49.394;11.136;2023-04-06T15:03:12;19.90;2.90
3198;DHT22;1611;49.394;11.136;2023-04-06T15:05:39;20.70;2.80
3198;DHT22;1611;49.394;11.136;2023-04-06T15:08:06;21.30;2.40
3198;DHT22;1611;49.394;11.136;2023-04-06T15:10:34;20.90;2.10
3198;DHT22;1611;49.394;11.136;2023-04-06T15:13:01;19.80;2.50
3198;DHT22;1611;49.394;11.136;2023-04-06T15:15:28;19.00;3.40
3198;DHT22;1611;49.394;11.136;2023-04-06T15:17:55;18.80;4.80
3198;DHT22;1611;49.394;11.136;2023-04-06T15:20:23;19.30;4.50
3198;DHT22;1611;49.394;11.136;2023-04-06T15:22:50;20.20;3.70
3198;DHT22;1611;49.394;11.136;2023-04-06T15:25:17;21.30;3.00
3198;DHT22;1611;49.394;11.136;2023-04-06T15:27:44;21.60;1.90
3198;DHT22;1611;49.394;11.136;2023-04-06T15:30:11;20.90;2.50
3198;DHT22;1611;49.394;11.136;2023-04-06T15:32:37;21.20;2.70
3198;DHT22;1611;49.394;11.136;2023-04-06T15:35:09;21.90;1.70
3198;DHT22;1611;49.394;11.136;2023-04-06T15:37:38;21.50;1.60
3198;DHT22;1611;49.394;11.136;2023-04-06T15:40:05;21.40;2.00
3198;DHT22;1611;49.394;11.136;2023-04-06T15:42:32;20.70;2.40
3198;DHT22;1611;49.394;11.136;2023-04-06T15:44:59;19.80;3.00
3198;DHT22;1611;49.394;11.136;2023-04-06T15:47:26;18.90;3.70
3198;DHT22;1611;49.394;11.136;2023-04-06T15:49:52;17.70;4.40
3198;DHT22;1611;49.394;11.136;2023-04-06T15:52:19;17.20;5.70
3198;DHT22;1611;49.394;11.136;2023-04-06T15:54:48;16.60;6.10
3198;DHT22;1611;49.394;11.136;2023-04-06T15:57:16;16.20;6.30
3198;DHT22;1611;49.394;11.136;2023-04-06T15:59:42;15.70;6.90